sensor_id;sensor_type;location;lat;lon;timestamp;P1;durP1;ratioP1;P2;durP2;ratioP2
33152;SDS011;19509;43.862;26.176;2023-03-24T00:02:22;2.20;;;2.20;;
33152;SDS011;19509;43.862;26.176;2023-03-24T00:04:48;2.30;;;2.30;;
33152;SDS011;19509;43.862;26.176;2023-03-24T00:07:16;2.27;;;2.27;;
33152;SDS011;19509;43.862;26.176;2023-03-24T00:09:43;2.30;;;2.30;;
33152;SDS011;19509;43.862;26.176;2023-03-24T00:12:11;2.20;;;2.20;;
33152;SDS011;19509;43.862;26.176;2023-03-24T00:14:38;2.17;;;2.17;;
33152;SDS011;19509;43.862;26.176;2023-03-24T00:17:05;2.17;;;2.17;;
33152;SDS011;19509;43.862;26.176;2023-03-24T00:19:33;2.40;;;2.40;;
33152;SDS011;19509;43.862;26.176;2023-03-24T00:22:03;2.10;;;2.10;;
33152;SDS011;19509;43.862;26.176;2023-03-24T00:24:29;2.30;;;2.30;;
33152;SDS011;19509;43.862;26.176;2023-03-24T00:26:55;2.50;;;2.40;;
33152;SDS011;19509;43.862;26.176;2023-03-24T00:29:21;2.20;;;2.20;;
33152;SDS011;19509;43.862;26.176;2023-03-24T00:31:49;2.37;;;2.37;;
33152;SDS011;19509;43.862;26.176;2023-03-24T00:34:16;2.37;;;2.27;;
33152;SDS011;19509;43.862;26.176;2023-03-24T00:36:46;2.30;;;2.30;;
33152;SDS011;19509;43.862;26.176;2023-03-24T00:39:15;1.90;;;1.90;;
33152;SDS011;19509;43.862;26.176;2023-03-24T00:41:42;2.10;;;2.10;;
33152;SDS011;19509;43.862;26.176;2023-03-24T00:44:12;2.17;;;2.17;;
33152;SDS011;19509;43.862;26.176;2023-03-24T00:46:44;2.50;;;2.50;;
33152;SDS011;19509;43.862;26.176;2023-03-24T00:49:11;2.30;;;2.30;;
33152;SDS011;19509;43.862;26.176;2023-03-24T00:51:38;2.20;;;2.20;;
33152;SDS011;19509;43.862;26.176;2023-03-24T00:54:06;2.00;;;2.00;;
33152;SDS011;19509;43.862;26.176;2023-03-24T00:56:33;2.00;;;2.00;;
33152;SDS011;19509;43.862;26.176;2023-03-24T00:59:02;2.30;;;2.30;;
33152;SDS011;19509;43.862;26.176;2023-03-24T01:01:29;2.20;;;2.20;;
33152;SDS011;19509;43.862;26.176;2023-03-24T01:04:00;2.20;;;2.20;;
33152;SDS011;19509;43.862;26.176;2023-03-24T01:06:26;2.40;;;2.40;;
33152;SDS011;19509;43.862;26.176;2023-03-24T01:08:52;2.20;;;2.20;;
33152;SDS011;19509;43.862;26.176;2023-03-24T01:11:19;2.50;;;2.50;;
33152;SDS011;19509;43.862;26.176;2023-03-24T01:13:47;2.30;;;2.30;;
33152;SDS011;19509;43.862;26.176;2023-03-24T01:16:12;2.80;;;2.60;;
33152;SDS011;19509;43.862;26.176;2023-03-24T01:18:38;2.20;;;2.20;;
33152;SDS011;19509;43.862;26.176;2023-03-24T01:21:05;2.40;;;2.40;;
33152;SDS011;19509;43.862;26.176;2023-03-24T01:23:32;2.10;;;2.10;;
33152;SDS011;19509;43.862;26.176;2023-03-24T01:25:58;2.30;;;2.30;;
33152;SDS011;19509;43.862;26.176;2023-03-24T01:28:28;2.23;;;2.23;;
33152;SDS011;19509;43.862;26.176;2023-03-24T01:30:53;2.40;;;2.40;;
33152;SDS011;19509;43.862;26.176;2023-03-24T01:33:19;2.30;;;2.23;;
33152;SDS011;19509;43.862;26.176;2023-03-24T01:35:45;2.00;;;2.00;;
33152;SDS011;19509;43.862;26.176;2023-03-24T01:38:11;2.20;;;2.20;;
33152;SDS011;19509;43.862;26.176;2023-03-24T01:40:40;2.13;;;2.13;;
33152;SDS011;19509;43.862;26.176;2023-03-24T01:43:10;2.30;;;2.30;;
33152;SDS011;19509;43.862;26.176;2023-03-24T01:48:26;2.20;;;2.20;;
33152;SDS011;19509;43.862;26.176;2023-03-24T01:51:08;2.27;;;2.27;;
33152;SDS011;19509;43.862;26.176;2023-03-24T01:53:49;2.30;;;2.30;;
33152;SDS011;19509;43.862;26.176;2023-03-24T01:56:18;2.20;;;2.20;;
33152;SDS011;19509;43.862;26.176;2023-03-24T01:58:47;2.27;;;2.27;;
33152;SDS011;19509;43.862;26.176;2023-03-24T02:01:17;2.27;;;2.27;;
33152;SDS011;19509;43.862;26.176;2023-03-24T02:03:44;2.13;;;2.13;;
33152;SDS011;19509;43.862;26.176;2023-03-24T02:06:10;2.20;;;2.20;;
33152;SDS011;19509;43.862;26.176;2023-03-24T02:08:51;2.30;;;2.30;;
33152;SDS011;19509;43.862;26.176;2023-03-24T02:11:19;2.40;;;2.40;;
33152;SDS011;19509;43.862;26.176;2023-03-24T02:13:47;2.27;;;2.27;;
33152;SDS011;19509;43.862;26.176;2023-03-24T02:16:22;2.10;;;2.10;;
33152;SDS011;19509;43.862;26.176;2023-03-24T02:19:39;1.97;;;1.97;;
33152;SDS011;19509;43.862;26.176;2023-03-24T02:47:23;2.27;;;2.27;;
33152;SDS011;19509;43.862;26.176;2023-03-24T02:55:48;2.20;;;2.20;;
33152;SDS011;19509;43.862;26.176;2023-03-24T02:58:51;2.10;;;2.10;;
33152;SDS011;19509;43.862;26.176;2023-03-24T03:04:43;2.20;;;2.20;;
33152;SDS011;19509;43.862;26.176;2023-03-24T03:07:14;2.07;;;2.07;;
33152;SDS011;19509;43.862;26.176;2023-03-24T03:09:56;2.37;;;2.33;;
33152;SDS011;19509;43.862;26.176;2023-03-24T03:12:31;2.23;;;2.23;;
33152;SDS011;19509;43.862;26.176;2023-03-24T03:15:06;2.00;;;2.00;;
33152;SDS011;19509;43.862;26.176;2023-03-24T03:18:21;2.40;;;2.30;;
33152;SDS011;19509;43.862;26.176;2023-03-24T03:20:39;2.00;;;2.00;;
33152;SDS011;19509;43.862;26.176;2023-03-24T03:23:14;2.20;;;2.20;;
33152;SDS011;19509;43.862;26.176;2023-03-24T03:25:44;2.00;;;2.00;;
33152;SDS011;19509;43.862;26.176;2023-03-24T03:28:16;2.00;;;2.00;;
33152;SDS011;19509;43.862;26.176;2023-03-24T03:30:47;2.37;;;2.37;;
33152;SDS011;19509;43.862;26.176;2023-03-24T03:33:22;2.40;;;2.40;;
33152;SDS011;19509;43.862;26.176;2023-03-24T03:38:44;2.30;;;2.30;;
33152;SDS011;19509;43.862;26.176;2023-03-24T03:41:17;2.43;;;2.43;;
33152;SDS011;19509;43.862;26.176;2023-03-24T03:43:44;2.00;;;2.00;;
33152;SDS011;19509;43.862;26.176;2023-03-24T03:46:12;2.20;;;2.20;;
33152;SDS011;19509;43.862;26.176;2023-03-24T03:48:39;2.30;;;2.30;;
33152;SDS011;19509;43.862;26.176;2023-03-24T03:51:05;2.13;;;2.13;;
33152;SDS011;19509;43.862;26.176;2023-03-24T03:53:35;2.60;;;2.53;;
33152;SDS011;19509;43.862;26.176;2023-03-24T03:56:08;2.33;;;2.33;;
33152;SDS011;19509;43.862;26.176;2023-03-24T03:58:33;2.33;;;2.33;;
33152;SDS011;19509;43.862;26.176;2023-03-24T04:00:59;2.20;;;2.20;;
33152;SDS011;19509;43.862;26.176;2023-03-24T04:06:04;2.10;;;2.10;;
33152;SDS011;19509;43.862;26.176;2023-03-24T04:08:56;2.37;;;2.37;;
33152;SDS011;19509;43.862;26.176;2023-03-24T04:20:18;2.47;;;2.47;;
33152;SDS011;19509;43.862;26.176;2023-03-24T04:23:07;2.60;;;2.50;;
33152;SDS011;19509;43.862;26.176;2023-03-24T04:26:05;2.70;;;2.70;;
33152;SDS011;19509;43.862;26.176;2023-03-24T04:31:31;2.47;;;2.47;;
33152;SDS011;19509;43.862;26.176;2023-03-24T04:33:59;2.90;;;2.80;;
33152;SDS011;19509;43.862;26.176;2023-03-24T04:39:13;2.03;;;2.03;;
33152;SDS011;19509;43.862;26.176;2023-03-24T04:41:43;2.20;;;2.20;;
33152;SDS011;19509;43.862;26.176;2023-03-24T04:44:11;2.00;;;2.00;;
33152;SDS011;19509;43.862;26.176;2023-03-24T04:46:41;2.40;;;2.40;;
33152;SDS011;19509;43.862;26.176;2023-03-24T04:49:07;2.00;;;2.00;;
33152;SDS011;19509;43.862;26.176;2023-03-24T04:51:33;1.97;;;1.97;;
33152;SDS011;19509;43.862;26.176;2023-03-24T04:53:59;1.87;;;1.87;;
33152;SDS011;19509;43.862;26.176;2023-03-24T04:56:25;1.80;;;1.80;;
33152;SDS011;19509;43.862;26.176;2023-03-24T04:59:02;2.00;;;1.90;;
33152;SDS011;19509;43.862;26.176;2023-03-24T05:01:28;2.40;;;2.40;;
33152;SDS011;19509;43.862;26.176;2023-03-24T05:03:54;2.50;;;2.50;;
33152;SDS011;19509;43.862;26.176;2023-03-24T05:06:21;5.87;;;5.57;;
33152;SDS011;19509;43.862;26.176;2023-03-24T05:08:46;2.23;;;2.23;;
33152;SDS011;19509;43.862;26.176;2023-03-24T05:11:13;2.27;;;2.20;;
33152;SDS011;19509;43.862;26.176;2023-03-24T05:13:38;1.60;;;1.60;;
33152;SDS011;19509;43.862;26.176;2023-03-24T05:16:04;1.60;;;1.60;;
33152;SDS011;19509;43.862;26.176;2023-03-24T05:18:30;1.80;;;1.70;;
33152;SDS011;19509;43.862;26.176;2023-03-24T05:20:55;1.57;;;1.57;;
33152;SDS011;19509;43.862;26.176;2023-03-24T05:23:21;1.43;;;1.43;;
33152;SDS011;19509;43.862;26.176;2023-03-24T05:25:47;1.50;;;1.50;;
33152;SDS011;19509;43.862;26.176;2023-03-24T05:28:12;1.43;;;1.43;;
33152;SDS011;19509;43.862;26.176;2023-03-24T05:30:38;1.37;;;1.37;;
33152;SDS011;19509;43.862;26.176;2023-03-24T05:33:03;1.50;;;1.50;;
33152;SDS011;19509;43.862;26.176;2023-03-24T05:35:29;1.60;;;1.60;;
33152;SDS011;19509;43.862;26.176;2023-03-24T05:37:54;1.70;;;1.70;;
33152;SDS011;19509;43.862;26.176;2023-03-24T05:40:20;1.27;;;1.27;;
33152;SDS011;19509;43.862;26.176;2023-03-24T05:42:47;1.20;;;1.20;;
33152;SDS011;19509;43.862;26.176;2023-03-24T05:45:14;1.40;;;1.40;;
33152;SDS011;19509;43.862;26.176;2023-03-24T05:47:40;1.20;;;1.20;;
33152;SDS011;19509;43.862;26.176;2023-03-24T05:50:05;1.30;;;1.30;;
33152;SDS011;19509;43.862;26.176;2023-03-24T05:52:31;1.23;;;1.23;;
33152;SDS011;19509;43.862;26.176;2023-03-24T05:54:57;6.00;;;5.70;;
33152;SDS011;19509;43.862;26.176;2023-03-24T05:57:23;5.60;;;5.40;;
33152;SDS011;19509;43.862;26.176;2023-03-24T05:59:48;3.90;;;3.80;;
33152;SDS011;19509;43.862;26.176;2023-03-24T06:02:14;10.20;;;9.60;;
33152;SDS011;19509;43.862;26.176;2023-03-24T06:04:39;4.13;;;4.03;;
33152;SDS011;19509;43.862;26.176;2023-03-24T06:07:10;3.70;;;3.60;;
33152;SDS011;19509;43.862;26.176;2023-03-24T06:09:35;2.57;;;2.53;;
33152;SDS011;19509;43.862;26.176;2023-03-24T06:12:01;3.50;;;3.40;;
33152;SDS011;19509;43.862;26.176;2023-03-24T06:14:28;3.63;;;3.53;;
33152;SDS011;19509;43.862;26.176;2023-03-24T06:16:53;4.60;;;4.40;;
33152;SDS011;19509;43.862;26.176;2023-03-24T06:19:23;2.60;;;2.60;;
33152;SDS011;19509;43.862;26.176;2023-03-24T06:21:51;4.20;;;4.10;;
33152;SDS011;19509;43.862;26.176;2023-03-24T06:24:18;3.33;;;3.23;;
33152;SDS011;19509;43.862;26.176;2023-03-24T06:26:45;3.80;;;3.70;;
33152;SDS011;19509;43.862;26.176;2023-03-24T06:29:14;2.53;;;2.53;;
33152;SDS011;19509;43.862;26.176;2023-03-24T06:31:42;2.03;;;2.03;;
33152;SDS011;19509;43.862;26.176;2023-03-24T06:34:08;2.20;;;2.20;;
33152;SDS011;19509;43.862;26.176;2023-03-24T06:36:33;1.70;;;1.70;;
33152;SDS011;19509;43.862;26.176;2023-03-24T06:39:02;2.03;;;2.03;;
33152;SDS011;19509;43.862;26.176;2023-03-24T06:41:30;1.70;;;1.70;;
33152;SDS011;19509;43.862;26.176;2023-03-24T06:43:55;1.40;;;1.40;;
33152;SDS011;19509;43.862;26.176;2023-03-24T06:46:21;2.73;;;2.73;;
33152;SDS011;19509;43.862;26.176;2023-03-24T06:48:48;2.50;;;2.50;;
33152;SDS011;19509;43.862;26.176;2023-03-24T06:51:14;2.07;;;2.07;;
33152;SDS011;19509;43.862;26.176;2023-03-24T06:53:39;1.20;;;1.20;;
33152;SDS011;19509;43.862;26.176;2023-03-24T06:56:05;1.57;;;1.57;;
33152;SDS011;19509;43.862;26.176;2023-03-24T06:58:31;2.00;;;2.00;;
33152;SDS011;19509;43.862;26.176;2023-03-24T07:00:58;1.53;;;1.53;;
33152;SDS011;19509;43.862;26.176;2023-03-24T07:03:25;1.60;;;1.50;;
33152;SDS011;19509;43.862;26.176;2023-03-24T07:05:50;1.30;;;1.30;;
33152;SDS011;19509;43.862;26.176;2023-03-24T07:08:16;1.50;;;1.50;;
33152;SDS011;19509;43.862;26.176;2023-03-24T07:10:41;1.30;;;1.30;;
33152;SDS011;19509;43.862;26.176;2023-03-24T07:13:07;1.60;;;1.60;;
33152;SDS011;19509;43.862;26.176;2023-03-24T07:15:33;1.20;;;1.20;;
33152;SDS011;19509;43.862;26.176;2023-03-24T07:17:59;1.40;;;1.40;;
33152;SDS011;19509;43.862;26.176;2023-03-24T07:20:25;1.30;;;1.30;;
33152;SDS011;19509;43.862;26.176;2023-03-24T07:22:54;1.40;;;1.40;;
33152;SDS011;19509;43.862;26.176;2023-03-24T07:25:20;1.30;;;1.20;;
33152;SDS011;19509;43.862;26.176;2023-03-24T07:27:46;1.83;;;1.83;;
33152;SDS011;19509;43.862;26.176;2023-03-24T07:30:12;1.40;;;1.40;;
33152;SDS011;19509;43.862;26.176;2023-03-24T07:32:38;1.00;;;1.00;;
33152;SDS011;19509;43.862;26.176;2023-03-24T07:35:08;1.20;;;1.20;;
33152;SDS011;19509;43.862;26.176;2023-03-24T07:37:36;1.40;;;1.40;;
33152;SDS011;19509;43.862;26.176;2023-03-24T07:40:02;1.10;;;1.10;;
33152;SDS011;19509;43.862;26.176;2023-03-24T07:42:35;1.20;;;1.20;;
33152;SDS011;19509;43.862;26.176;2023-03-24T07:45:02;1.20;;;1.20;;
33152;SDS011;19509;43.862;26.176;2023-03-24T07:47:29;1.20;;;1.20;;
33152;SDS011;19509;43.862;26.176;2023-03-24T07:49:55;1.00;;;1.00;;
33152;SDS011;19509;43.862;26.176;2023-03-24T07:52:21;1.27;;;1.27;;
33152;SDS011;19509;43.862;26.176;2023-03-24T07:54:46;0.90;;;0.90;;
33152;SDS011;19509;43.862;26.176;2023-03-24T07:57:12;0.90;;;0.90;;
33152;SDS011;19509;43.862;26.176;2023-03-24T07:59:37;1.10;;;1.10;;
33152;SDS011;19509;43.862;26.176;2023-03-24T08:02:03;0.93;;;0.93;;
33152;SDS011;19509;43.862;26.176;2023-03-24T08:04:28;1.20;;;1.20;;
33152;SDS011;19509;43.862;26.176;2023-03-24T08:06:54;0.97;;;0.97;;
33152;SDS011;19509;43.862;26.176;2023-03-24T08:09:19;1.00;;;1.00;;
33152;SDS011;19509;43.862;26.176;2023-03-24T08:11:48;0.90;;;0.90;;
33152;SDS011;19509;43.862;26.176;2023-03-24T08:14:13;1.00;;;1.00;;
33152;SDS011;19509;43.862;26.176;2023-03-24T08:16:39;0.97;;;0.97;;
33152;SDS011;19509;43.862;26.176;2023-03-24T08:19:04;1.10;;;1.10;;
33152;SDS011;19509;43.862;26.176;2023-03-24T08:21:30;0.90;;;0.90;;
33152;SDS011;19509;43.862;26.176;2023-03-24T08:23:56;1.00;;;1.00;;
33152;SDS011;19509;43.862;26.176;2023-03-24T08:26:21;0.93;;;0.93;;
33152;SDS011;19509;43.862;26.176;2023-03-24T08:28:50;1.00;;;1.00;;
33152;SDS011;19509;43.862;26.176;2023-03-24T08:31:16;0.90;;;0.90;;
33152;SDS011;19509;43.862;26.176;2023-03-24T08:33:42;0.90;;;0.90;;
33152;SDS011;19509;43.862;26.176;2023-03-24T08:36:07;1.00;;;1.00;;
33152;SDS011;19509;43.862;26.176;2023-03-24T08:38:33;1.00;;;1.00;;
33152;SDS011;19509;43.862;26.176;2023-03-24T08:41:03;0.87;;;0.87;;
33152;SDS011;19509;43.862;26.176;2023-03-24T08:43:31;1.00;;;1.00;;
33152;SDS011;19509;43.862;26.176;2023-03-24T08:45:59;1.00;;;1.00;;
33152;SDS011;19509;43.862;26.176;2023-03-24T08:48:26;0.90;;;0.90;;
33152;SDS011;19509;43.862;26.176;2023-03-24T08:50:53;1.03;;;0.90;;
33152;SDS011;19509;43.862;26.176;2023-03-24T08:53:19;0.90;;;0.90;;
33152;SDS011;19509;43.862;26.176;2023-03-24T08:55:45;0.80;;;0.80;;
33152;SDS011;19509;43.862;26.176;2023-03-24T08:58:15;1.00;;;1.00;;
33152;SDS011;19509;43.862;26.176;2023-03-24T09:00:43;0.80;;;0.80;;
33152;SDS011;19509;43.862;26.176;2023-03-24T09:03:11;1.00;;;1.00;;
33152;SDS011;19509;43.862;26.176;2023-03-24T09:05:38;0.90;;;0.90;;
33152;SDS011;19509;43.862;26.176;2023-03-24T09:08:04;0.97;;;0.97;;
33152;SDS011;19509;43.862;26.176;2023-03-24T09:10:31;1.10;;;1.00;;
33152;SDS011;19509;43.862;26.176;2023-03-24T09:12:56;1.00;;;1.00;;
33152;SDS011;19509;43.862;26.176;2023-03-24T09:15:21;0.83;;;0.83;;
33152;SDS011;19509;43.862;26.176;2023-03-24T09:17:47;0.80;;;0.80;;
33152;SDS011;19509;43.862;26.176;2023-03-24T09:20:13;0.90;;;0.90;;
33152;SDS011;19509;43.862;26.176;2023-03-24T09:22:40;0.80;;;0.80;;
33152;SDS011;19509;43.862;26.176;2023-03-24T09:25:08;1.00;;;1.00;;
33152;SDS011;19509;43.862;26.176;2023-03-24T09:27:36;0.90;;;0.90;;
33152;SDS011;19509;43.862;26.176;2023-03-24T09:30:02;0.80;;;0.80;;
33152;SDS011;19509;43.862;26.176;2023-03-24T09:32:28;0.80;;;0.80;;
33152;SDS011;19509;43.862;26.176;2023-03-24T09:34:53;0.80;;;0.80;;
33152;SDS011;19509;43.862;26.176;2023-03-24T09:37:19;0.83;;;0.83;;
33152;SDS011;19509;43.862;26.176;2023-03-24T09:39:45;0.90;;;0.90;;
33152;SDS011;19509;43.862;26.176;2023-03-24T09:42:14;0.80;;;0.80;;
33152;SDS011;19509;43.862;26.176;2023-03-24T09:44:46;0.93;;;0.93;;
33152;SDS011;19509;43.862;26.176;2023-03-24T09:47:25;0.90;;;0.90;;
33152;SDS011;19509;43.862;26.176;2023-03-24T09:49:56;1.00;;;1.00;;
33152;SDS011;19509;43.862;26.176;2023-03-24T09:52:31;0.90;;;0.90;;
33152;SDS011;19509;43.862;26.176;2023-03-24T09:55:00;1.00;;;1.00;;
33152;SDS011;19509;43.862;26.176;2023-03-24T09:57:39;0.93;;;0.93;;
33152;SDS011;19509;43.862;26.176;2023-03-24T10:02:50;0.90;;;0.90;;
33152;SDS011;19509;43.862;26.176;2023-03-24T10:05:18;0.80;;;0.80;;
33152;SDS011;19509;43.862;26.176;2023-03-24T10:13:50;0.80;;;0.80;;
33152;SDS011;19509;43.862;26.176;2023-03-24T10:16:35;0.70;;;0.70;;
33152;SDS011;19509;43.862;26.176;2023-03-24T10:21:54;0.80;;;0.80;;
33152;SDS011;19509;43.862;26.176;2023-03-24T10:24:41;0.80;;;0.80;;
33152;SDS011;19509;43.862;26.176;2023-03-24T10:30:02;0.80;;;0.80;;
33152;SDS011;19509;43.862;26.176;2023-03-24T10:32:36;0.90;;;0.90;;
33152;SDS011;19509;43.862;26.176;2023-03-24T10:35:02;0.70;;;0.70;;
33152;SDS011;19509;43.862;26.176;2023-03-24T10:37:34;0.70;;;0.70;;
33152;SDS011;19509;43.862;26.176;2023-03-24T10:40:01;0.80;;;0.80;;
33152;SDS011;19509;43.862;26.176;2023-03-24T10:42:31;0.80;;;0.80;;
33152;SDS011;19509;43.862;26.176;2023-03-24T10:44:59;0.80;;;0.80;;
33152;SDS011;19509;43.862;26.176;2023-03-24T10:47:27;0.80;;;0.80;;
33152;SDS011;19509;43.862;26.176;2023-03-24T10:52:25;0.70;;;0.70;;
33152;SDS011;19509;43.862;26.176;2023-03-24T10:55:14;0.60;;;0.60;;
33152;SDS011;19509;43.862;26.176;2023-03-24T10:57:43;0.70;;;0.70;;
33152;SDS011;19509;43.862;26.176;2023-03-24T11:00:18;0.80;;;0.80;;
33152;SDS011;19509;43.862;26.176;2023-03-24T11:02:58;0.80;;;0.80;;
33152;SDS011;19509;43.862;26.176;2023-03-24T11:05:32;0.80;;;0.80;;
33152;SDS011;19509;43.862;26.176;2023-03-24T11:08:20;0.90;;;0.90;;
33152;SDS011;19509;43.862;26.176;2023-03-24T11:10:51;0.90;;;0.90;;
33152;SDS011;19509;43.862;26.176;2023-03-24T11:13:17;0.80;;;0.80;;
33152;SDS011;19509;43.862;26.176;2023-03-24T11:16:07;0.70;;;0.70;;
33152;SDS011;19509;43.862;26.176;2023-03-24T11:18:36;0.70;;;0.70;;
33152;SDS011;19509;43.862;26.176;2023-03-24T11:21:02;0.80;;;0.80;;
33152;SDS011;19509;43.862;26.176;2023-03-24T11:23:37;0.70;;;0.70;;
33152;SDS011;19509;43.862;26.176;2023-03-24T11:28:37;0.77;;;0.77;;
33152;SDS011;19509;43.862;26.176;2023-03-24T11:31:11;0.70;;;0.70;;
33152;SDS011;19509;43.862;26.176;2023-03-24T11:33:50;0.67;;;0.67;;
33152;SDS011;19509;43.862;26.176;2023-03-24T11:39:01;0.70;;;0.70;;
33152;SDS011;19509;43.862;26.176;2023-03-24T11:41:34;0.70;;;0.70;;
33152;SDS011;19509;43.862;26.176;2023-03-24T11:44:21;0.60;;;0.60;;
33152;SDS011;19509;43.862;26.176;2023-03-24T11:46:50;0.60;;;0.60;;
33152;SDS011;19509;43.862;26.176;2023-03-24T11:49:20;0.60;;;0.60;;
33152;SDS011;19509;43.862;26.176;2023-03-24T11:51:50;0.70;;;0.70;;
33152;SDS011;19509;43.862;26.176;2023-03-24T11:54:18;0.67;;;0.67;;
33152;SDS011;19509;43.862;26.176;2023-03-24T11:56:51;0.60;;;0.60;;
33152;SDS011;19509;43.862;26.176;2023-03-24T12:04:40;0.60;;;0.60;;
33152;SDS011;19509;43.862;26.176;2023-03-24T12:15:36;0.73;;;0.73;;
33152;SDS011;19509;43.862;26.176;2023-03-24T12:23:59;0.70;;;0.70;;
33152;SDS011;19509;43.862;26.176;2023-03-24T12:26:34;0.70;;;0.70;;
33152;SDS011;19509;43.862;26.176;2023-03-24T12:45:52;0.70;;;0.70;;
33152;SDS011;19509;43.862;26.176;2023-03-24T12:48:37;0.60;;;0.60;;
33152;SDS011;19509;43.862;26.176;2023-03-24T12:56:58;0.60;;;0.60;;
33152;SDS011;19509;43.862;26.176;2023-03-24T12:59:36;0.70;;;0.70;;
33152;SDS011;19509;43.862;26.176;2023-03-24T13:05:02;0.67;;;0.67;;
33152;SDS011;19509;43.862;26.176;2023-03-24T13:07:32;0.60;;;0.60;;
33152;SDS011;19509;43.862;26.176;2023-03-24T13:10:11;0.60;;;0.60;;
33152;SDS011;19509;43.862;26.176;2023-03-24T13:15:19;0.60;;;0.60;;
33152;SDS011;19509;43.862;26.176;2023-03-24T13:17:55;0.80;;;0.80;;
33152;SDS011;19509;43.862;26.176;2023-03-24T13:20:28;0.67;;;0.67;;
33152;SDS011;19509;43.862;26.176;2023-03-24T13:28:33;0.70;;;0.70;;
33152;SDS011;19509;43.862;26.176;2023-03-24T13:31:15;0.70;;;0.70;;
33152;SDS011;19509;43.862;26.176;2023-03-24T13:33:43;0.60;;;0.60;;
33152;SDS011;19509;43.862;26.176;2023-03-24T13:38:54;0.70;;;0.70;;
33152;SDS011;19509;43.862;26.176;2023-03-24T13:41:24;0.70;;;0.70;;
33152;SDS011;19509;43.862;26.176;2023-03-24T13:44:01;0.70;;;0.70;;
33152;SDS011;19509;43.862;26.176;2023-03-24T13:46:39;0.60;;;0.60;;
33152;SDS011;19509;43.862;26.176;2023-03-24T13:49:08;0.60;;;0.60;;
33152;SDS011;19509;43.862;26.176;2023-03-24T13:51:40;0.57;;;0.57;;
33152;SDS011;19509;43.862;26.176;2023-03-24T13:54:13;0.97;;;0.97;;
33152;SDS011;19509;43.862;26.176;2023-03-24T13:56:53;0.67;;;0.67;;
33152;SDS011;19509;43.862;26.176;2023-03-24T13:59:29;0.70;;;0.70;;
33152;SDS011;19509;43.862;26.176;2023-03-24T14:05:00;0.60;;;0.60;;
33152;SDS011;19509;43.862;26.176;2023-03-24T14:17:54;0.60;;;0.60;;
33152;SDS011;19509;43.862;26.176;2023-03-24T14:20:26;0.70;;;0.70;;
33152;SDS011;19509;43.862;26.176;2023-03-24T14:22:59;0.60;;;0.60;;
33152;SDS011;19509;43.862;26.176;2023-03-24T14:25:28;0.70;;;0.70;;
33152;SDS011;19509;43.862;26.176;2023-03-24T14:33:39;0.60;;;0.60;;
33152;SDS011;19509;43.862;26.176;2023-03-24T14:36:39;0.70;;;0.70;;
33152;SDS011;19509;43.862;26.176;2023-03-24T14:41:52;0.60;;;0.60;;
33152;SDS011;19509;43.862;26.176;2023-03-24T14:47:15;0.70;;;0.70;;
33152;SDS011;19509;43.862;26.176;2023-03-24T14:49:45;0.70;;;0.70;;
33152;SDS011;19509;43.862;26.176;2023-03-24T14:55:19;0.60;;;0.60;;
33152;SDS011;19509;43.862;26.176;2023-03-24T14:57:47;0.60;;;0.60;;
33152;SDS011;19509;43.862;26.176;2023-03-24T15:00:18;0.60;;;0.60;;
33152;SDS011;19509;43.862;26.176;2023-03-24T15:02:49;0.60;;;0.60;;
33152;SDS011;19509;43.862;26.176;2023-03-24T15:05:22;0.60;;;0.60;;
33152;SDS011;19509;43.862;26.176;2023-03-24T15:07:57;0.63;;;0.63;;
33152;SDS011;19509;43.862;26.176;2023-03-24T15:10:48;1.03;;;0.70;;
33152;SDS011;19509;43.862;26.176;2023-03-24T15:13:26;0.70;;;0.70;;
33152;SDS011;19509;43.862;26.176;2023-03-24T15:15:57;0.60;;;0.60;;
33152;SDS011;19509;43.862;26.176;2023-03-24T15:18:24;0.80;;;0.80;;
33152;SDS011;19509;43.862;26.176;2023-03-24T15:20:50;0.70;;;0.70;;
33152;SDS011;19509;43.862;26.176;2023-03-24T15:23:18;0.77;;;0.77;;
33152;SDS011;19509;43.862;26.176;2023-03-24T15:25:43;0.60;;;0.60;;
33152;SDS011;19509;43.862;26.176;2023-03-24T15:28:19;0.73;;;0.73;;
33152;SDS011;19509;43.862;26.176;2023-03-24T15:30:45;0.63;;;0.63;;
33152;SDS011;19509;43.862;26.176;2023-03-24T15:33:12;0.70;;;0.70;;
33152;SDS011;19509;43.862;26.176;2023-03-24T15:35:38;0.70;;;0.70;;
33152;SDS011;19509;43.862;26.176;2023-03-24T15:38:04;0.73;;;0.73;;
33152;SDS011;19509;43.862;26.176;2023-03-24T15:40:30;0.97;;;0.90;;
33152;SDS011;19509;43.862;26.176;2023-03-24T15:43:04;0.70;;;0.70;;
33152;SDS011;19509;43.862;26.176;2023-03-24T15:45:42;0.93;;;0.93;;
33152;SDS011;19509;43.862;26.176;2023-03-24T15:48:15;0.80;;;0.80;;
33152;SDS011;19509;43.862;26.176;2023-03-24T15:50:56;0.80;;;0.80;;
33152;SDS011;19509;43.862;26.176;2023-03-24T15:56:04;1.20;;;1.20;;
33152;SDS011;19509;43.862;26.176;2023-03-24T15:58:46;1.73;;;1.73;;
33152;SDS011;19509;43.862;26.176;2023-03-24T16:01:14;1.30;;;1.30;;
33152;SDS011;19509;43.862;26.176;2023-03-24T16:03:43;1.30;;;1.30;;
33152;SDS011;19509;43.862;26.176;2023-03-24T16:06:13;1.37;;;1.37;;
33152;SDS011;19509;43.862;26.176;2023-03-24T16:08:41;1.10;;;1.10;;
33152;SDS011;19509;43.862;26.176;2023-03-24T16:11:08;1.07;;;1.07;;
33152;SDS011;19509;43.862;26.176;2023-03-24T16:13:39;1.00;;;1.00;;
33152;SDS011;19509;43.862;26.176;2023-03-24T16:18:39;0.87;;;0.87;;
33152;SDS011;19509;43.862;26.176;2023-03-24T16:21:12;0.80;;;0.80;;
33152;SDS011;19509;43.862;26.176;2023-03-24T16:23:45;0.80;;;0.80;;
33152;SDS011;19509;43.862;26.176;2023-03-24T16:28:47;1.70;;;0.80;;
33152;SDS011;19509;43.862;26.176;2023-03-24T16:33:46;0.80;;;0.80;;
33152;SDS011;19509;43.862;26.176;2023-03-24T16:36:12;0.90;;;0.90;;
33152;SDS011;19509;43.862;26.176;2023-03-24T16:38:39;0.93;;;0.93;;
33152;SDS011;19509;43.862;26.176;2023-03-24T16:41:05;0.87;;;0.87;;
33152;SDS011;19509;43.862;26.176;2023-03-24T16:43:31;0.90;;;0.90;;
33152;SDS011;19509;43.862;26.176;2023-03-24T16:45:58;1.40;;;1.40;;
33152;SDS011;19509;43.862;26.176;2023-03-24T16:48:24;1.47;;;1.47;;
33152;SDS011;19509;43.862;26.176;2023-03-24T16:50:50;1.07;;;1.07;;
33152;SDS011;19509;43.862;26.176;2023-03-24T16:53:19;1.10;;;1.10;;
33152;SDS011;19509;43.862;26.176;2023-03-24T16:55:45;0.90;;;0.90;;
33152;SDS011;19509;43.862;26.176;2023-03-24T16:58:12;3.60;;;1.13;;
33152;SDS011;19509;43.862;26.176;2023-03-24T17:00:40;1.30;;;1.30;;
33152;SDS011;19509;43.862;26.176;2023-03-24T17:03:09;1.00;;;1.00;;
33152;SDS011;19509;43.862;26.176;2023-03-24T17:05:36;1.00;;;1.00;;
33152;SDS011;19509;43.862;26.176;2023-03-24T17:08:04;1.20;;;1.20;;
33152;SDS011;19509;43.862;26.176;2023-03-24T17:10:30;1.30;;;1.30;;
33152;SDS011;19509;43.862;26.176;2023-03-24T17:12:56;1.40;;;1.40;;
33152;SDS011;19509;43.862;26.176;2023-03-24T17:15:22;4.27;;;2.03;;
33152;SDS011;19509;43.862;26.176;2023-03-24T17:17:52;1.43;;;1.43;;
33152;SDS011;19509;43.862;26.176;2023-03-24T17:20:18;1.30;;;1.30;;
33152;SDS011;19509;43.862;26.176;2023-03-24T17:22:45;2.20;;;1.40;;
33152;SDS011;19509;43.862;26.176;2023-03-24T17:25:13;10.23;;;8.10;;
33152;SDS011;19509;43.862;26.176;2023-03-24T17:27:41;4.67;;;4.37;;
33152;SDS011;19509;43.862;26.176;2023-03-24T17:30:07;2.00;;;2.00;;
33152;SDS011;19509;43.862;26.176;2023-03-24T17:32:40;1.20;;;1.20;;
33152;SDS011;19509;43.862;26.176;2023-03-24T17:35:05;2.23;;;1.10;;
33152;SDS011;19509;43.862;26.176;2023-03-24T17:37:35;1.10;;;1.10;;
33152;SDS011;19509;43.862;26.176;2023-03-24T17:40:01;1.20;;;1.20;;
33152;SDS011;19509;43.862;26.176;2023-03-24T17:42:30;1.23;;;1.23;;